Terminal Aerodrome Forecast
Issued by NWS

Home | Current Version | Previous Version | Graphics & Text | Print | Product List | Glossary On
Versions: 1 2 3 4 5 6 7 8 9 10 11 12 13 14 15 16 17
000
FTUS43 KGRB 012338
TAFATW
TAF
KATW 012338Z 0200/0224 29007KT P6SM SCT020 OVC030
      TEMPO 0200/0204 -RADZ BKN019
     FM021800 30008KT P6SM BKN025=

USA.gov is the U.S. government's official web portal to all federal, state and local government web resources and services.